createdAt,value
2023-03-03T00:00:19.698Z,60.47
2023-03-03T00:03:16.687Z,60.49
2023-03-03T00:05:49.710Z,60.32
2023-03-03T00:08:23.245Z,60.55
2023-03-03T00:10:55.647Z,60.49
2023-03-03T00:13:28.935Z,60.51
2023-03-03T00:16:15.068Z,60.36
2023-03-03T00:18:48.432Z,60.70
2023-03-03T00:21:30.336Z,60.62
2023-03-03T00:24:17.049Z,60.56
2023-03-03T00:26:51.489Z,60.70
2023-03-03T00:29:42.125Z,60.77
2023-03-03T00:32:25.643Z,60.63
2023-03-03T00:35:23.510Z,60.74
2023-03-03T00:37:59.551Z,60.87
2023-03-03T00:40:37.293Z,60.98
2023-03-03T00:43:20.782Z,61.06
2023-03-03T00:45:55.038Z,60.88
2023-03-03T00:48:30.026Z,60.91
2023-03-03T00:51:10.461Z,61.02
2023-03-03T00:53:42.922Z,61.13
2023-03-03T00:56:15.370Z,61.07
2023-03-03T00:58:48.423Z,61.00
2023-03-03T01:01:23.148Z,61.07
2023-03-03T01:03:57.627Z,61.13
2023-03-03T01:06:30.907Z,61.19
2023-03-03T01:09:03.426Z,61.32
2023-03-03T01:11:35.947Z,61.14
2023-03-03T01:14:08.640Z,61.52
2023-03-03T01:16:41.740Z,61.30
2023-03-03T01:19:14.197Z,61.40
2023-03-03T01:21:46.602Z,61.42
2023-03-03T01:24:19.070Z,61.65
2023-03-03T01:26:51.624Z,61.61
2023-03-03T01:29:24.051Z,61.60
2023-03-03T01:31:56.813Z,61.59
2023-03-03T01:34:29.338Z,61.70
2023-03-03T01:37:02.191Z,61.63
2023-03-03T01:39:34.678Z,61.79
2023-03-03T01:42:07.443Z,61.79
2023-03-03T01:44:39.855Z,61.77
2023-03-03T01:47:16.862Z,61.67
2023-03-03T01:49:57.467Z,61.81
2023-03-03T01:52:35.167Z,61.77
2023-03-03T01:55:14.090Z,61.69
2023-03-03T01:57:50.587Z,61.87
2023-03-03T02:00:23.314Z,61.76
2023-03-03T02:02:56.748Z,62.07
2023-03-03T02:05:30.269Z,61.92
2023-03-03T02:08:03.099Z,62.11
2023-03-03T02:10:36.622Z,62.01
2023-03-03T02:13:09.178Z,62.06
2023-03-03T02:15:41.705Z,61.98
2023-03-03T02:18:16.777Z,61.97
2023-03-03T02:20:59.276Z,62.06
2023-03-03T02:23:36.571Z,62.21
2023-03-03T02:26:16.569Z,62.28
2023-03-03T02:28:48.973Z,62.12
2023-03-03T02:31:24.316Z,62.17
2023-03-03T02:33:57.405Z,62.46
2023-03-03T02:36:31.796Z,62.31
2023-03-03T02:39:08.561Z,62.15
2023-03-03T02:41:46.143Z,62.40
2023-03-03T02:44:20.552Z,62.43
2023-03-03T02:46:55.324Z,62.37
2023-03-03T02:49:30.043Z,62.46
2023-03-03T02:52:04.161Z,62.52
2023-03-03T02:54:36.733Z,62.43
2023-03-03T02:57:10.045Z,62.64
2023-03-03T02:59:42.432Z,62.61
2023-03-03T03:02:19.402Z,62.49
2023-03-03T03:04:52.119Z,62.76
2023-03-03T03:07:25.639Z,62.76
2023-03-03T03:09:59.666Z,62.77
2023-03-03T03:12:33.765Z,62.66
2023-03-03T03:15:10.034Z,62.81
2023-03-03T03:17:43.641Z,62.69
2023-03-03T03:20:17.534Z,62.69
2023-03-03T03:22:50.595Z,62.86
2023-03-03T03:25:23.367Z,62.87
2023-03-03T03:27:56.007Z,62.90
2023-03-03T03:30:28.624Z,62.86
2023-03-03T03:33:00.912Z,62.87
2023-03-03T03:35:33.742Z,62.87
2023-03-03T03:38:06.401Z,62.99
2023-03-03T03:40:38.707Z,62.95
2023-03-03T03:43:10.963Z,62.99
2023-03-03T03:45:45.202Z,63.09
2023-03-03T03:48:20.060Z,62.89
2023-03-03T03:50:53.817Z,63.17
2023-03-03T03:53:26.507Z,63.14
2023-03-03T03:55:58.822Z,63.06
2023-03-03T03:58:31.762Z,63.22
2023-03-03T04:01:08.701Z,63.27
2023-03-03T04:03:45.559Z,63.13
2023-03-03T04:06:20.447Z,63.31
2023-03-03T04:08:52.841Z,63.24
2023-03-03T04:11:26.949Z,63.40
2023-03-03T04:13:59.430Z,63.39
2023-03-03T04:16:31.962Z,63.53
2023-03-03T04:19:04.519Z,63.49
2023-03-03T04:21:38.288Z,63.41
2023-03-03T04:24:11.311Z,63.53
2023-03-03T04:26:44.069Z,63.43
2023-03-03T04:29:16.429Z,63.53
2023-03-03T04:31:49.295Z,63.53
2023-03-03T04:34:22.534Z,63.61
2023-03-03T04:36:55.243Z,63.74
2023-03-03T04:39:29.139Z,63.64
2023-03-03T04:42:02.665Z,63.75
2023-03-03T04:44:35.392Z,63.81
2023-03-03T04:47:08.190Z,63.76
2023-03-03T04:49:40.987Z,63.73
2023-03-03T04:52:14.390Z,63.78
2023-03-03T04:54:47.203Z,63.78
2023-03-03T04:57:19.614Z,63.84
2023-03-03T04:59:51.939Z,63.76
2023-03-03T05:02:24.419Z,63.80
2023-03-03T05:04:57.572Z,63.78
2023-03-03T05:07:29.929Z,63.94
2023-03-03T05:10:02.209Z,63.97
2023-03-03T05:12:34.516Z,64.07
2023-03-03T05:15:09.042Z,64.13
2023-03-03T05:17:41.582Z,63.99
2023-03-03T05:20:16.076Z,64.18
2023-03-03T05:22:48.648Z,64.17
2023-03-03T05:25:21.953Z,63.75
2023-03-03T05:27:55.055Z,64.18
2023-03-03T05:30:27.350Z,64.09
2023-03-03T05:33:00.763Z,64.14
2023-03-03T05:35:33.494Z,63.92
2023-03-03T05:38:05.822Z,64.20
2023-03-03T05:40:38.978Z,64.19
2023-03-03T05:43:11.338Z,64.25
2023-03-03T05:45:43.609Z,64.23
2023-03-03T05:48:16.066Z,64.37
2023-03-03T05:50:48.327Z,64.48
2023-03-03T05:53:20.730Z,64.44
2023-03-03T05:55:52.948Z,64.44
2023-03-03T05:58:25.345Z,64.45
2023-03-03T06:00:57.695Z,64.53
2023-03-03T06:03:30.021Z,64.34
2023-03-03T06:06:02.304Z,64.35
2023-03-03T06:08:34.621Z,64.53
2023-03-03T06:11:07.074Z,64.33
2023-03-03T06:13:39.969Z,64.54
2023-03-03T06:16:12.554Z,64.71
2023-03-03T06:18:44.850Z,64.60
2023-03-03T06:21:17.168Z,64.50
2023-03-03T06:23:49.493Z,64.87
2023-03-03T06:26:21.823Z,64.53
2023-03-03T06:28:55.418Z,64.81
2023-03-03T06:31:28.737Z,64.70
2023-03-03T06:34:01.077Z,64.87
2023-03-03T06:36:33.357Z,64.75
2023-03-03T06:39:05.899Z,64.87
2023-03-03T06:41:38.323Z,64.83
2023-03-03T06:44:11.974Z,64.80
2023-03-03T06:46:44.339Z,64.83
2023-03-03T06:49:16.702Z,64.87
2023-03-03T06:51:49.053Z,64.97
2023-03-03T06:54:25.097Z,65.10
2023-03-03T06:57:04.493Z,64.85
2023-03-03T06:59:36.786Z,65.06
2023-03-03T07:02:18.070Z,65.07
2023-03-03T07:04:50.966Z,65.03
2023-03-03T07:07:24.976Z,65.22
2023-03-03T07:09:58.377Z,65.32
2023-03-03T07:12:34.083Z,65.21
2023-03-03T07:15:17.713Z,65.05
2023-03-03T07:17:53.748Z,65.18
2023-03-03T07:20:33.517Z,65.37
2023-03-03T07:23:16.979Z,65.17
2023-03-03T07:25:49.379Z,65.11
2023-03-03T07:28:25.361Z,65.30
2023-03-03T07:30:59.326Z,65.30
2023-03-03T07:33:36.302Z,65.31
2023-03-03T07:36:28.764Z,65.26
2023-03-03T07:39:03.458Z,65.43
2023-03-03T07:41:37.874Z,65.39
2023-03-03T07:44:22.968Z,65.42
2023-03-03T07:46:55.241Z,65.32
2023-03-03T07:49:35.268Z,65.48
2023-03-03T07:52:26.134Z,65.28
2023-03-03T07:55:01.212Z,65.46
2023-03-03T07:57:39.944Z,65.50
2023-03-03T08:00:50.891Z,65.52
2023-03-03T08:03:23.810Z,65.42
2023-03-03T08:05:56.108Z,65.61
2023-03-03T08:08:37.109Z,65.55
2023-03-03T08:11:10.031Z,65.29
2023-03-03T08:13:44.860Z,65.73
2023-03-03T08:16:31.782Z,65.55
2023-03-03T08:19:06.456Z,65.58
2023-03-03T08:21:38.732Z,65.51
2023-03-03T08:24:11.027Z,65.65
2023-03-03T08:26:44.043Z,65.44
2023-03-03T08:29:16.295Z,65.32
2023-03-03T08:31:48.647Z,65.64
2023-03-03T08:34:20.900Z,65.59
2023-03-03T08:36:53.243Z,65.60
2023-03-03T08:39:25.465Z,65.70
2023-03-03T08:41:57.853Z,65.58
2023-03-03T08:44:30.234Z,65.75
2023-03-03T08:47:02.846Z,65.58
2023-03-03T08:49:35.054Z,65.92
2023-03-03T08:52:07.665Z,65.92
2023-03-03T08:54:39.989Z,65.84
2023-03-03T08:57:12.286Z,65.71
2023-03-03T08:59:44.511Z,65.86
2023-03-03T09:02:17.307Z,66.01
2023-03-03T09:04:49.693Z,65.93
2023-03-03T09:07:22.052Z,65.93
2023-03-03T09:09:54.362Z,66.17
2023-03-03T09:12:34.619Z,66.07
2023-03-03T09:15:18.489Z,65.97
2023-03-03T09:17:51.635Z,65.87
2023-03-03T09:20:37.364Z,65.91
2023-03-03T09:23:37.378Z,66.13
2023-03-03T09:26:45.648Z,66.06
2023-03-03T09:29:25.130Z,66.33
2023-03-03T09:31:59.227Z,66.24
2023-03-03T09:34:41.809Z,66.34
2023-03-03T09:37:24.047Z,66.14
2023-03-03T09:39:58.487Z,66.25
2023-03-03T09:42:54.874Z,66.34
2023-03-03T09:45:41.922Z,66.25
2023-03-03T09:48:51.125Z,66.24
2023-03-03T09:51:40.391Z,66.25
2023-03-03T09:54:32.062Z,66.41
2023-03-03T09:57:13.224Z,66.45
2023-03-03T10:00:00.313Z,66.27
2023-03-03T10:02:45.252Z,66.30
2023-03-03T10:05:40.640Z,66.43
2023-03-03T10:08:36.265Z,66.59
2023-03-03T10:11:19.573Z,66.34
2023-03-03T10:14:09.323Z,66.48
2023-03-03T10:16:56.540Z,66.54
2023-03-03T10:19:40.416Z,66.45
2023-03-03T10:22:24.400Z,66.61
2023-03-03T10:25:09.949Z,66.60
2023-03-03T10:27:46.979Z,66.69
2023-03-03T10:30:39.928Z,66.80
2023-03-03T10:33:25.114Z,66.67
2023-03-03T10:36:20.227Z,66.66
2023-03-03T10:39:04.403Z,66.41
2023-03-03T10:42:00.679Z,66.82
2023-03-03T10:44:47.278Z,66.55
2023-03-03T10:47:47.159Z,66.77
2023-03-03T10:50:28.632Z,67.08
2023-03-03T10:53:20.063Z,67.01
2023-03-03T10:56:02.392Z,66.86
2023-03-03T10:58:59.852Z,66.77
2023-03-03T11:01:46.974Z,66.80
2023-03-03T11:04:34.580Z,66.84
2023-03-03T11:07:13.338Z,67.13
2023-03-03T11:10:00.908Z,67.15
2023-03-03T11:12:48.063Z,67.01
2023-03-03T11:15:46.191Z,67.27
2023-03-03T11:18:39.326Z,67.29
2023-03-03T11:21:20.877Z,67.24
2023-03-03T11:24:16.540Z,67.33
2023-03-03T11:27:03.965Z,67.21
2023-03-03T11:29:48.782Z,67.37
2023-03-03T11:32:28.619Z,67.25
2023-03-03T11:35:14.985Z,67.26
2023-03-03T11:37:56.078Z,67.37
2023-03-03T11:40:34.033Z,67.15
2023-03-03T11:43:18.588Z,67.23
2023-03-03T11:46:01.649Z,67.16
2023-03-03T11:48:40.886Z,67.38
2023-03-03T11:51:21.188Z,67.34
2023-03-03T11:54:02.448Z,67.16
2023-03-03T11:56:41.143Z,67.34
2023-03-03T11:59:43.458Z,67.33
2023-03-03T12:02:30.516Z,67.27
2023-03-03T12:05:10.103Z,67.28
2023-03-03T12:07:50.814Z,67.51
2023-03-03T12:10:29.431Z,67.36
2023-03-03T12:13:07.839Z,67.30
2023-03-03T12:15:49.132Z,67.32
2023-03-03T12:18:43.723Z,67.24
2023-03-03T12:21:33.681Z,67.20
2023-03-03T12:24:34.308Z,67.55
2023-03-03T12:27:16.442Z,67.58
2023-03-03T12:30:05.182Z,67.35
2023-03-03T12:32:56.678Z,67.44
2023-03-03T12:35:37.110Z,67.40
2023-03-03T12:38:19.552Z,67.44
2023-03-03T12:40:59.180Z,67.38
2023-03-03T12:43:43.694Z,67.34
2023-03-03T12:46:28.517Z,67.50
2023-03-03T12:49:01.421Z,67.28
2023-03-03T12:51:44.071Z,67.38
2023-03-03T12:54:40.294Z,67.36
2023-03-03T12:57:27.630Z,67.44
2023-03-03T13:00:20.669Z,67.40
2023-03-03T13:03:06.177Z,67.33
2023-03-03T13:05:45.785Z,67.41
2023-03-03T13:08:44.291Z,67.31
2023-03-03T13:11:37.396Z,67.52
2023-03-03T13:14:18.147Z,67.41
2023-03-03T13:16:58.173Z,67.70
2023-03-03T13:19:35.669Z,67.58
2023-03-03T13:22:14.951Z,67.30
2023-03-03T13:25:00.398Z,67.49
2023-03-03T13:27:38.836Z,67.18
2023-03-03T13:30:21.776Z,67.24
2023-03-03T13:32:59.006Z,67.42
2023-03-03T13:35:43.076Z,67.53
2023-03-03T13:38:20.185Z,67.57
2023-03-03T13:40:56.696Z,67.22
2023-03-03T13:43:35.835Z,67.30
2023-03-03T13:46:16.020Z,67.14
2023-03-03T13:49:01.691Z,67.38
2023-03-03T13:51:44.077Z,67.39
2023-03-03T13:54:31.094Z,67.13
2023-03-03T13:57:21.618Z,67.49
2023-03-03T14:00:04.238Z,67.06
2023-03-03T14:03:05.151Z,67.42
2023-03-03T14:05:42.672Z,67.44
2023-03-03T14:08:27.219Z,67.42
2023-03-03T14:11:11.527Z,67.20
2023-03-03T14:13:58.935Z,67.40
2023-03-03T14:16:44.786Z,67.09
2023-03-03T14:19:22.993Z,66.91
2023-03-03T14:22:08.234Z,67.26
2023-03-03T14:25:05.514Z,67.18
2023-03-03T14:27:41.463Z,67.39
2023-03-03T14:30:35.501Z,67.07
2023-03-03T14:33:25.789Z,67.24
2023-03-03T14:36:12.316Z,67.28
2023-03-03T14:38:51.821Z,67.37
2023-03-03T14:41:37.283Z,67.15
2023-03-03T14:44:30.792Z,67.03
2023-03-03T14:47:23.011Z,67.50
2023-03-03T14:50:00.087Z,67.46
2023-03-03T14:52:35.083Z,67.20
2023-03-03T14:55:34.557Z,67.13
2023-03-03T14:58:09.950Z,67.28
2023-03-03T15:00:42.300Z,67.21
2023-03-03T15:03:28.064Z,67.17
2023-03-03T15:06:00.552Z,67.47
2023-03-03T15:08:37.596Z,67.48
2023-03-03T15:11:22.129Z,67.47
2023-03-03T15:13:55.218Z,67.36
2023-03-03T15:16:35.852Z,67.30
2023-03-03T15:19:46.968Z,67.35
2023-03-03T15:22:32.181Z,67.56
2023-03-03T15:25:10.598Z,67.54
2023-03-03T15:27:47.019Z,67.59
2023-03-03T15:30:30.228Z,67.26
2023-03-03T15:33:12.614Z,67.25
2023-03-03T15:35:52.517Z,67.23
2023-03-03T15:38:39.074Z,67.17
2023-03-03T15:44:29.118Z,67.47
2023-03-03T15:47:23.088Z,67.69
2023-03-03T15:50:06.855Z,67.45
2023-03-03T15:52:50.506Z,67.42
2023-03-03T15:55:48.389Z,67.66
2023-03-03T15:58:39.997Z,67.66
2023-03-03T16:01:19.531Z,67.72
2023-03-03T16:03:57.408Z,67.55
2023-03-03T16:06:41.939Z,67.67
2023-03-03T16:09:25.599Z,67.54
2023-03-03T16:12:08.689Z,67.81
2023-03-03T16:15:12.572Z,67.64
2023-03-03T16:17:54.865Z,67.77
2023-03-03T16:20:34.611Z,67.78
2023-03-03T16:23:23.828Z,67.50
2023-03-03T16:26:07.213Z,67.39
2023-03-03T16:28:52.785Z,67.54
2023-03-03T16:31:30.635Z,67.44
2023-03-03T16:34:13.685Z,67.78
2023-03-03T16:37:01.651Z,67.44
2023-03-03T16:39:43.992Z,67.86
2023-03-03T16:42:24.536Z,67.97
2023-03-03T16:45:10.429Z,67.95
2023-03-03T16:47:54.911Z,68.02
2023-03-03T16:50:32.448Z,68.16
2023-03-03T16:53:16.256Z,67.97
2023-03-03T16:55:58.348Z,67.87
2023-03-03T16:58:46.555Z,67.72
2023-03-03T17:01:29.564Z,67.81
2023-03-03T17:04:12.076Z,67.73
2023-03-03T17:06:50.317Z,67.76
2023-03-03T17:09:52.070Z,67.81
2023-03-03T17:12:42.377Z,67.88
2023-03-03T17:15:33.929Z,68.18
2023-03-03T17:18:15.885Z,68.31
2023-03-03T17:20:52.765Z,68.18
2023-03-03T17:23:47.581Z,68.32
2023-03-03T17:26:33.576Z,68.08
2023-03-03T17:29:21.142Z,68.11
2023-03-03T17:31:59.477Z,68.30
2023-03-03T17:34:43.700Z,68.15
2023-03-03T17:37:31.334Z,67.96
2023-03-03T17:40:24.642Z,67.86
2023-03-03T17:43:02.390Z,67.99
2023-03-03T17:45:39.622Z,67.97
2023-03-03T17:48:31.933Z,67.97
2023-03-03T17:51:14.846Z,68.06
2023-03-03T17:54:06.013Z,68.41
2023-03-03T17:56:49.208Z,68.02
2023-03-03T17:59:35.935Z,68.42
2023-03-03T18:02:56.318Z,68.42
2023-03-03T18:05:49.680Z,68.28
2023-03-03T18:08:49.186Z,68.24
2023-03-03T18:11:36.706Z,68.27
2023-03-03T18:14:40.809Z,67.96
2023-03-03T18:17:41.190Z,67.84
2023-03-03T18:20:46.642Z,68.05
2023-03-03T18:23:45.399Z,68.30
2023-03-03T18:26:39.848Z,68.34
2023-03-03T18:29:28.223Z,68.52
2023-03-03T18:32:20.705Z,68.62
2023-03-03T18:35:31.643Z,68.33
2023-03-03T18:38:26.814Z,68.73
2023-03-03T18:41:02.331Z,68.59
2023-03-03T18:44:23.930Z,68.57
2023-03-03T18:47:05.243Z,68.80
2023-03-03T18:50:01.032Z,68.55
2023-03-03T18:52:32.129Z,68.52
2023-03-03T18:55:27.560Z,68.53
2023-03-03T18:58:34.062Z,68.66
2023-03-03T19:01:41.598Z,68.78
2023-03-03T19:04:22.672Z,68.76
2023-03-03T19:07:19.021Z,68.85
2023-03-03T19:10:01.861Z,69.00
2023-03-03T19:12:54.406Z,68.80
2023-03-03T19:15:45.796Z,68.80
2023-03-03T19:18:21.345Z,68.70
2023-03-03T19:20:59.437Z,68.55
2023-03-03T19:23:59.896Z,68.66
2023-03-03T19:27:01.730Z,68.74
2023-03-03T19:30:12.962Z,69.36
2023-03-03T19:33:10.147Z,69.09
2023-03-03T19:35:55.893Z,68.93
2023-03-03T19:38:37.614Z,69.13
2023-03-03T19:41:26.177Z,69.12
2023-03-03T19:44:08.903Z,69.14
2023-03-03T19:46:56.418Z,69.36
2023-03-03T19:49:47.262Z,69.14
2023-03-03T19:52:28.802Z,69.19
2023-03-03T19:55:19.801Z,69.02
2023-03-03T19:58:05.981Z,69.03
2023-03-03T20:00:43.490Z,69.22
2023-03-03T20:03:35.205Z,69.28
2023-03-03T20:06:19.643Z,69.70
2023-03-03T20:09:00.805Z,69.46
2023-03-03T20:11:51.808Z,69.69
2023-03-03T20:14:36.718Z,69.50
2023-03-03T20:17:25.694Z,69.46
2023-03-03T20:20:03.754Z,69.66
2023-03-03T20:22:43.900Z,69.64
2023-03-03T20:25:37.698Z,69.26
2023-03-03T20:28:26.129Z,69.00
2023-03-03T20:31:09.136Z,69.40
2023-03-03T20:33:51.971Z,69.49
2023-03-03T20:36:34.965Z,69.58
2023-03-03T20:39:11.245Z,70.05
2023-03-03T20:41:58.880Z,70.16
2023-03-03T20:44:45.508Z,70.20
2023-03-03T20:47:30.100Z,70.34
2023-03-03T20:50:15.604Z,70.01
2023-03-03T20:53:00.265Z,69.83
2023-03-03T20:55:46.510Z,69.54
2023-03-03T20:58:28.360Z,69.90
2023-03-03T21:01:06.705Z,69.68
2023-03-03T21:03:42.015Z,69.97
2023-03-03T21:06:16.490Z,69.78
2023-03-03T21:08:53.440Z,70.22
2023-03-03T21:11:42.596Z,70.31
2023-03-03T21:14:21.357Z,69.89
2023-03-03T21:16:56.665Z,70.17
2023-03-03T21:19:32.493Z,70.23
2023-03-03T21:22:05.672Z,70.29
2023-03-03T21:24:53.075Z,69.80
2023-03-03T21:27:30.664Z,69.88
2023-03-03T21:30:09.498Z,70.08
2023-03-03T21:32:44.973Z,69.92
2023-03-03T21:35:18.991Z,70.07
2023-03-03T21:37:53.159Z,70.17
2023-03-03T21:40:27.553Z,70.64
2023-03-03T21:43:01.500Z,70.48
2023-03-03T21:45:33.619Z,70.38
2023-03-03T21:48:07.005Z,70.27
2023-03-03T21:50:42.772Z,70.18
2023-03-03T21:53:14.791Z,70.49
2023-03-03T21:55:48.988Z,70.22
2023-03-03T21:58:21.915Z,70.78
2023-03-03T22:00:54.064Z,70.07
2023-03-03T22:03:26.189Z,70.36
2023-03-03T22:05:58.341Z,70.32
2023-03-03T22:08:30.577Z,70.40
2023-03-03T22:11:02.649Z,70.56
2023-03-03T22:13:34.864Z,70.51
2023-03-03T22:16:08.398Z,70.52
2023-03-03T22:18:40.549Z,70.39
2023-03-03T22:21:12.652Z,70.10
2023-03-03T22:23:44.884Z,70.18
2023-03-03T22:26:17.139Z,70.25
2023-03-03T22:28:49.567Z,70.39
2023-03-03T22:31:21.900Z,70.19
2023-03-03T22:33:54.147Z,70.46
2023-03-03T22:36:26.472Z,70.58
2023-03-03T22:38:58.580Z,70.42
2023-03-03T22:41:30.866Z,70.79
2023-03-03T22:44:03.323Z,70.51
2023-03-03T22:46:35.488Z,70.59
2023-03-03T22:49:07.803Z,70.68
2023-03-03T22:51:40.230Z,70.45
2023-03-03T22:54:12.887Z,70.52
2023-03-03T22:56:45.087Z,70.39
2023-03-03T22:59:17.754Z,70.60
2023-03-03T23:01:50.334Z,70.71
2023-03-03T23:04:22.605Z,70.65
2023-03-03T23:06:54.745Z,70.70
2023-03-03T23:09:27.065Z,70.86
2023-03-03T23:11:59.394Z,70.88
2023-03-03T23:14:31.768Z,70.70
2023-03-03T23:17:03.932Z,70.71
2023-03-03T23:19:36.127Z,70.68
2023-03-03T23:22:08.192Z,70.57
2023-03-03T23:24:40.294Z,70.69
2023-03-03T23:27:13.352Z,70.70
2023-03-03T23:29:45.560Z,70.63
2023-03-03T23:32:17.789Z,70.79
2023-03-03T23:34:49.994Z,70.91
2023-03-03T23:37:22.731Z,70.80
2023-03-03T23:39:54.844Z,70.77
2023-03-03T23:42:27.955Z,71.02
2023-03-03T23:45:00.387Z,71.13
2023-03-03T23:47:32.892Z,71.05
2023-03-03T23:50:05.510Z,71.02
2023-03-03T23:52:37.906Z,70.88
2023-03-03T23:55:12.302Z,70.87
2023-03-03T23:57:44.512Z,71.09
